首页
METAR-TAF:

METAR-TAF

机场 :

圣加仑, 瑞士

纬度: 47-29-06N, 经度: 009-33-43E, 海拔: 398米

当前天气观测

该预报发布于15分钟前的03:50 UTC
风速1节,风向多变
温度 1°C
湿度 100%
气压 1031 hPa
能见度10公里或以上
1500米以下无云,无积雨云

METAR: LSZR 260350Z AUTO VRB01KT CAVOK 01/01 Q1031

时间: 05:05 (04:05 UTC)

预报

该预报发布于13小时和40分钟前的14:25 UTC
预报有效从25日的 15点(UTC)到 25日的 24点(UTC)
风速5节,风向西
能见度10公里或以上
1500米以下无云,无积雨云

TAF: LSZR 251425Z 2515/2524 27005KT CAVOK

超过4000个机场的气象观测和天气预报(METAR&TAF报告)。

可查询的气象台以黄色和红色小点在地图上表示。

将鼠标移到小点上方,可查看气象台名称。

然后点击查看天气观测和预报。

如需切换地图:点击带黑十字的绿色按钮放大地图;点击带横线的绿色按钮缩小地图;或者点击绿色箭头查看邻近地区的地图。


METAR-TAF: